Time;durP1;ratioP1;P1;durP2;ratioP2;P2;SDS_P1;SDS_P2;PMS_P1;PMS_P2;Temp;Humidity;BMP_temperature;BMP_pressure;BME280_temperature;BME280_humidity;BME280_pressure;Samples;Min_cycle;Max_cycle;Signal;HPM_P1;HPM_P2
2022/06/11 00:00:09;;;;;;;5.75;2.40;;;;;;;;;;515659;28;1569;-85
2022/06/11 00:00:24;;;;;;;5.55;2.30;;;;;;;;;;514216;28;1538;-85
2022/06/11 00:00:40;;;;;;;5.72;2.50;;;;;;;;;;514926;28;1375;-85
2022/06/11 00:00:55;;;;;;;7.15;2.60;;;;;;;;;;514174;28;1464;-85
2022/06/11 00:01:15;;;;;;;8.37;2.60;;;;;;;;;;513184;28;1516;-85
2022/06/11 00:01:43;;;;;;;6.00;2.63;;;;;;;;;;514247;28;1566;-85
2022/06/11 00:02:04;;;;;;;5.55;2.50;;;;;;;;;;514119;28;1664;-85
2022/06/11 00:02:20;;;;;;;5.72;2.55;;;;;;;;;;514319;28;1674;-85
2022/06/11 00:02:36;;;;;;;5.72;2.47;;;;;;;;;;514488;28;1331;-85
2022/06/11 00:02:51;;;;;;;5.40;2.50;;;;;;;;;;514927;28;1202;-85
2022/06/11 00:03:07;;;;;;;6.57;2.53;;;;;;;;;;516002;28;850;-85
2022/06/11 00:03:23;;;;;;;6.68;2.50;;;;;;;;;;518069;28;858;-85
2022/06/11 00:03:39;;;;;;;6.40;2.60;;;;;;;;;;517456;28;1276;-85
2022/06/11 00:03:58;;;;;;;6.13;2.65;;;;;;;;;;514841;28;1393;-85
2022/06/11 00:04:18;;;;;;;4.45;2.45;;;;;;;;;;514752;28;1369;-85
2022/06/11 00:04:42;;;;;;;5.15;2.50;;;;;;;;;;514864;28;1476;-85
2022/06/11 00:04:57;;;;;;;6.05;2.53;;;;;;;;;;516648;28;1483;-85
2022/06/11 00:05:13;;;;;;;6.37;2.50;;;;;;;;;;514827;28;1452;-85
2022/06/11 00:05:28;;;;;;;6.13;2.40;;;;;;;;;;512670;28;1718;-85
2022/06/11 00:05:44;;;;;;;5.23;2.40;;;;;;;;;;515050;28;1488;-85
2022/06/11 00:05:59;;;;;;;4.57;2.53;;;;;;;;;;514658;28;1770;-85
2022/06/11 00:06:15;;;;;;;4.83;2.50;;;;;;;;;;514400;28;1595;-85
2022/06/11 00:06:33;;;;;;;5.07;2.50;;;;;;;;;;514391;28;1537;-85
2022/06/11 00:06:52;;;;;;;5.60;2.55;;;;;;;;;;514423;28;1764;-85
2022/06/11 00:07:21;;;;;;;6.72;2.63;;;;;;;;;;513184;28;1812;-85
2022/06/11 00:07:37;;;;;;;7.50;2.80;;;;;;;;;;514033;28;1632;-85
2022/06/11 00:07:52;;;;;;;6.75;2.85;;;;;;;;;;513096;28;1564;-85
2022/06/11 00:08:07;;;;;;;7.18;2.78;;;;;;;;;;514028;28;1487;-86
2022/06/11 00:08:23;;;;;;;7.13;2.60;;;;;;;;;;514653;28;1514;-85
2022/06/11 00:08:39;;;;;;;5.43;2.63;;;;;;;;;;514315;28;1509;-85
2022/06/11 00:08:54;;;;;;;4.40;2.60;;;;;;;;;;514492;28;1488;-85
2022/06/11 00:09:11;;;;;;;5.30;2.42;;;;;;;;;;514558;28;1478;-85
2022/06/11 00:09:27;;;;;;;6.35;2.60;;;;;;;;;;514617;28;1493;-85
2022/06/11 00:09:43;;;;;;;6.00;2.70;;;;;;;;;;514939;28;1456;-85
2022/06/11 00:09:59;;;;;;;5.55;2.80;;;;;;;;;;516726;28;1466;-85
2022/06/11 00:10:14;;;;;;;5.37;2.70;;;;;;;;;;516176;28;1447;-85
2022/06/11 00:10:30;;;;;;;6.05;2.70;;;;;;;;;;516085;28;1439;-85
2022/06/11 00:10:46;;;;;;;6.13;2.60;;;;;;;;;;517177;28;1581;-85
2022/06/11 00:11:01;;;;;;;6.28;2.50;;;;;;;;;;516449;28;1494;-85
2022/06/11 00:11:17;;;;;;;6.22;2.70;;;;;;;;;;514757;28;1407;-85
2022/06/11 00:11:34;;;;;;;5.43;2.70;;;;;;;;;;514350;28;1568;-85
2022/06/11 00:11:51;;;;;;;6.85;2.72;;;;;;;;;;514561;28;1405;-85
2022/06/11 00:12:09;;;;;;;6.30;2.78;;;;;;;;;;512584;28;1402;-85
2022/06/11 00:12:26;;;;;;;5.90;2.70;;;;;;;;;;512822;28;1456;-85
2022/06/11 00:12:42;;;;;;;6.80;2.70;;;;;;;;;;513916;28;1476;-85
2022/06/11 00:12:57;;;;;;;6.38;2.67;;;;;;;;;;515113;28;1511;-85
2022/06/11 00:13:13;;;;;;;6.03;2.53;;;;;;;;;;516264;28;1655;-85
2022/06/11 00:13:29;;;;;;;6.85;2.67;;;;;;;;;;513600;28;1608;-85
2022/06/11 00:13:44;;;;;;;6.80;2.90;;;;;;;;;;512651;28;1431;-85
2022/06/11 00:14:00;;;;;;;6.60;2.70;;;;;;;;;;512153;28;1669;-85
2022/06/11 00:14:15;;;;;;;6.47;2.83;;;;;;;;;;512355;28;1573;-85
2022/06/11 00:14:32;;;;;;;5.85;2.80;;;;;;;;;;512192;28;1610;-85
2022/06/11 00:14:48;;;;;;;4.97;2.50;;;;;;;;;;514718;28;1627;-85
2022/06/11 00:15:05;;;;;;;6.57;2.67;;;;;;;;;;514038;28;1821;-85
2022/06/11 00:15:20;;;;;;;7.03;2.60;;;;;;;;;;511896;28;1656;-85
2022/06/11 00:15:36;;;;;;;5.95;2.55;;;;;;;;;;512658;28;2034;-85
2022/06/11 00:15:54;;;;;;;6.43;2.65;;;;;;;;;;512005;28;1712;-85
2022/06/11 00:16:11;;;;;;;6.18;2.60;;;;;;;;;;512398;28;1505;-85
2022/06/11 00:16:27;;;;;;;5.22;2.60;;;;;;;;;;513362;28;1456;-85
2022/06/11 00:16:42;;;;;;;4.85;2.60;;;;;;;;;;511811;28;1569;-85
2022/06/11 00:16:59;;;;;;;6.53;2.60;;;;;;;;;;512318;28;1430;-85
2022/06/11 00:17:17;;;;;;;7.07;2.65;;;;;;;;;;512662;28;1380;-85
2022/06/11 00:17:34;;;;;;;6.60;2.60;;;;;;;;;;512538;28;1556;-85
2022/06/11 00:17:51;;;;;;;5.93;2.65;;;;;;;;;;512040;28;1465;-85
2022/06/11 00:18:07;;;;;;;6.10;2.60;;;;;;;;;;512062;28;1421;-85
2022/06/11 00:18:25;;;;;;;6.22;2.38;;;;;;;;;;510287;29;1497;-85
2022/06/11 00:18:42;;;;;;;6.38;2.47;;;;;;;;;;510160;29;1705;-85
2022/06/11 00:18:59;;;;;;;6.13;2.60;;;;;;;;;;511770;28;1547;-85
2022/06/11 00:19:15;;;;;;;6.13;2.40;;;;;;;;;;511812;28;1441;-85
2022/06/11 00:19:31;;;;;;;5.65;2.30;;;;;;;;;;514084;28;1453;-85
2022/06/11 00:19:47;;;;;;;6.30;2.40;;;;;;;;;;515731;28;1523;-85
2022/06/11 00:20:05;;;;;;;5.80;2.40;;;;;;;;;;516692;28;1550;-85
2022/06/11 00:20:21;;;;;;;4.95;2.38;;;;;;;;;;516151;28;1561;-85
2022/06/11 00:20:36;;;;;;;6.43;2.63;;;;;;;;;;514395;28;1738;-85
2022/06/11 00:20:52;;;;;;;6.82;2.63;;;;;;;;;;514303;28;1511;-85
2022/06/11 00:21:08;;;;;;;5.45;2.25;;;;;;;;;;515081;28;1792;-84
2022/06/11 00:21:26;;;;;;;5.38;2.33;;;;;;;;;;514369;28;1416;-85
2022/06/11 00:21:43;;;;;;;4.82;2.45;;;;;;;;;;512707;28;1453;-85
2022/06/11 00:21:59;;;;;;;5.07;2.50;;;;;;;;;;511013;29;1549;-85
2022/06/11 00:22:17;;;;;;;6.38;2.47;;;;;;;;;;511657;28;1572;-85
2022/06/11 00:22:33;;;;;;;6.90;2.50;;;;;;;;;;513658;28;1433;-85
2022/06/11 00:22:48;;;;;;;5.75;2.35;;;;;;;;;;514932;28;1504;-86
2022/06/11 00:23:04;;;;;;;5.27;2.33;;;;;;;;;;512819;28;1592;-85
2022/06/11 00:23:19;;;;;;;7.00;2.47;;;;;;;;;;513944;28;1473;-86
2022/06/11 00:23:35;;;;;;;5.65;2.40;;;;;;;;;;515385;28;1542;-85
2022/06/11 00:23:51;;;;;;;3.70;2.28;;;;;;;;;;514672;28;1552;-85
2022/06/11 00:24:07;;;;;;;4.47;2.17;;;;;;;;;;512517;28;1562;-85
2022/06/11 00:24:26;;;;;;;5.95;2.20;;;;;;;;;;511858;28;1555;-85
2022/06/11 00:24:42;;;;;;;6.30;2.30;;;;;;;;;;512483;28;1460;-85
2022/06/11 00:24:57;;;;;;;7.45;2.53;;;;;;;;;;513794;28;1595;-85
2022/06/11 00:25:13;;;;;;;6.77;2.57;;;;;;;;;;515402;28;1404;-85
2022/06/11 00:25:31;;;;;;;5.50;2.50;;;;;;;;;;516579;28;1535;-85
2022/06/11 00:25:47;;;;;;;5.13;2.50;;;;;;;;;;516718;28;1825;-86
2022/06/11 00:26:04;;;;;;;5.45;2.60;;;;;;;;;;515842;28;1456;-85
2022/06/11 00:26:20;;;;;;;8.73;2.70;;;;;;;;;;514612;28;1389;-85
2022/06/11 00:26:38;;;;;;;8.75;2.58;;;;;;;;;;512436;28;1577;-85
2022/06/11 00:26:56;;;;;;;6.75;2.50;;;;;;;;;;513812;28;1533;-85
2022/06/11 00:27:13;;;;;;;7.80;2.50;;;;;;;;;;514308;28;1481;-85
2022/06/11 00:27:28;;;;;;;5.82;2.40;;;;;;;;;;514181;28;1564;-85
2022/06/11 00:27:44;;;;;;;5.73;2.40;;;;;;;;;;514842;28;1419;-85
2022/06/11 00:27:59;;;;;;;5.50;2.50;;;;;;;;;;514117;28;1449;-85
2022/06/11 00:28:15;;;;;;;5.30;2.50;;;;;;;;;;514771;28;1759;-85
2022/06/11 00:28:31;;;;;;;6.13;2.60;;;;;;;;;;513891;28;1495;-85
2022/06/11 00:28:47;;;;;;;6.63;2.60;;;;;;;;;;514978;28;1473;-85
2022/06/11 00:29:04;;;;;;;6.70;2.57;;;;;;;;;;513610;28;1729;-85
2022/06/11 00:29:21;;;;;;;5.72;2.60;;;;;;;;;;514289;28;1452;-85
2022/06/11 00:29:39;;;;;;;5.32;2.50;;;;;;;;;;514242;28;1732;-85
2022/06/11 00:29:54;;;;;;;5.25;2.20;;;;;;;;;;514497;28;1492;-85
2022/06/11 00:30:11;;;;;;;6.10;2.50;;;;;;;;;;512232;28;1536;-85
2022/06/11 00:30:27;;;;;;;5.53;2.40;;;;;;;;;;512683;28;1466;-85
2022/06/11 00:30:43;;;;;;;5.55;2.38;;;;;;;;;;512824;28;1848;-85
2022/06/11 00:30:59;;;;;;;5.03;2.40;;;;;;;;;;510649;29;1526;-85
2022/06/11 00:31:15;;;;;;;7.25;2.50;;;;;;;;;;512832;28;1398;-85
2022/06/11 00:31:30;;;;;;;7.73;2.70;;;;;;;;;;512388;28;1676;-85
2022/06/11 00:31:46;;;;;;;5.30;2.50;;;;;;;;;;511714;28;1449;-86
2022/06/11 00:32:04;;;;;;;4.30;2.30;;;;;;;;;;513126;28;1612;-85
2022/06/11 00:32:20;;;;;;;5.78;2.30;;;;;;;;;;514857;28;1531;-85
2022/06/11 00:32:35;;;;;;;6.43;2.60;;;;;;;;;;515629;28;1629;-85
2022/06/11 00:32:50;;;;;;;5.78;2.80;;;;;;;;;;515132;28;1550;-85
2022/06/11 00:33:07;;;;;;;5.80;2.90;;;;;;;;;;515893;28;1501;-85
2022/06/11 00:33:22;;;;;;;6.07;2.80;;;;;;;;;;513409;28;1487;-85
2022/06/11 00:33:38;;;;;;;6.20;2.50;;;;;;;;;;512301;28;1880;-85
2022/06/11 00:33:54;;;;;;;5.57;2.50;;;;;;;;;;512325;28;1637;-85
2022/06/11 00:34:09;;;;;;;6.07;2.60;;;;;;;;;;510218;29;1692;-86
2022/06/11 00:34:26;;;;;;;6.63;2.50;;;;;;;;;;510038;29;1882;-85
2022/06/11 00:34:43;;;;;;;7.68;2.58;;;;;;;;;;511025;28;1449;-85
2022/06/11 00:35:01;;;;;;;7.10;2.70;;;;;;;;;;510442;28;1440;-85
2022/06/11 00:35:16;;;;;;;5.30;2.60;;;;;;;;;;511850;28;1503;-85
2022/06/11 00:35:33;;;;;;;5.40;2.60;;;;;;;;;;513266;28;2037;-85
2022/06/11 00:35:51;;;;;;;5.78;2.60;;;;;;;;;;515923;28;1505;-85
2022/06/11 00:36:08;;;;;;;4.75;2.42;;;;;;;;;;516480;28;1523;-85
2022/06/11 00:36:23;;;;;;;4.72;2.35;;;;;;;;;;514466;28;1467;-85
2022/06/11 00:36:39;;;;;;;5.85;2.50;;;;;;;;;;514384;28;1535;-85
2022/06/11 00:36:55;;;;;;;6.50;2.70;;;;;;;;;;516404;28;1439;-85
2022/06/11 00:37:13;;;;;;;5.47;2.60;;;;;;;;;;514685;28;1529;-85
2022/06/11 00:37:29;;;;;;;5.22;2.40;;;;;;;;;;514402;28;1579;-85
2022/06/11 00:37:45;;;;;;;5.80;2.30;;;;;;;;;;512420;28;1434;-85
2022/06/11 00:38:01;;;;;;;6.57;2.40;;;;;;;;;;513633;28;1716;-85
2022/06/11 00:38:18;;;;;;;5.57;2.50;;;;;;;;;;515353;28;1531;-85
2022/06/11 00:38:34;;;;;;;5.93;2.42;;;;;;;;;;517019;28;1717;-85
2022/06/11 00:38:50;;;;;;;7.28;2.60;;;;;;;;;;516776;28;1590;-85
2022/06/11 00:39:07;;;;;;;6.10;2.67;;;;;;;;;;516209;28;1460;-85
2022/06/11 00:39:28;;;;;;;4.88;2.58;;;;;;;;;;514232;28;1469;-85
2022/06/11 00:39:44;;;;;;;5.43;2.60;;;;;;;;;;514299;28;1452;-85
2022/06/11 00:40:01;;;;;;;5.57;2.50;;;;;;;;;;514874;28;1965;-85
2022/06/11 00:40:19;;;;;;;5.13;2.55;;;;;;;;;;514342;28;1516;-85
2022/06/11 00:40:39;;;;;;;5.63;2.70;;;;;;;;;;512842;28;1519;-86
2022/06/11 00:40:54;;;;;;;5.55;2.60;;;;;;;;;;514816;28;1448;-85
2022/06/11 00:41:10;;;;;;;7.05;2.53;;;;;;;;;;514605;28;1448;-85
2022/06/11 00:41:28;;;;;;;8.65;2.60;;;;;;;;;;512759;28;1437;-85
2022/06/11 00:41:46;;;;;;;5.70;2.50;;;;;;;;;;512267;28;1563;-85
2022/06/11 00:42:14;;;;;;;4.93;2.70;;;;;;;;;;512380;28;1440;-85
2022/06/11 00:42:33;;;;;;;5.55;2.40;;;;;;;;;;513875;28;1378;-85
2022/06/11 00:42:49;;;;;;;4.57;2.40;;;;;;;;;;514540;28;1560;-85
2022/06/11 00:43:06;;;;;;;4.40;2.40;;;;;;;;;;513762;28;1733;-85
2022/06/11 00:43:25;;;;;;;5.68;2.60;;;;;;;;;;514380;28;1734;-85
2022/06/11 00:43:42;;;;;;;6.05;2.65;;;;;;;;;;515686;28;1609;-85
2022/06/11 00:43:58;;;;;;;6.50;2.50;;;;;;;;;;516503;28;1535;-84
2022/06/11 00:44:15;;;;;;;5.30;2.47;;;;;;;;;;514801;28;1530;-85
2022/06/11 00:44:30;;;;;;;6.50;2.58;;;;;;;;;;512654;28;1597;-85
2022/06/11 00:44:46;;;;;;;6.77;2.60;;;;;;;;;;510837;28;1382;-86
2022/06/11 00:45:27;;;;;;;4.28;2.30;;;;;;;;;;512699;28;1402;-85
2022/06/11 00:45:59;;;;;;;5.00;2.40;;;;;;;;;;513039;28;1674;-85
2022/06/11 00:46:43;;;;;;;6.72;2.42;;;;;;;;;;515604;28;1567;-85
2022/06/11 00:47:06;;;;;;;6.75;2.55;;;;;;;;;;520306;28;1706;-85
2022/06/11 00:47:22;;;;;;;5.97;2.47;;;;;;;;;;518193;28;1447;-85
2022/06/11 00:47:38;;;;;;;5.60;2.30;;;;;;;;;;517639;28;1433;-85
2022/06/11 00:47:59;;;;;;;6.70;2.50;;;;;;;;;;516077;28;1606;-85
2022/06/11 00:48:25;;;;;;;6.88;2.80;;;;;;;;;;516480;28;1427;-85
2022/06/11 00:48:41;;;;;;;5.85;2.50;;;;;;;;;;516199;28;1393;-84
2022/06/11 00:48:56;;;;;;;4.97;2.30;;;;;;;;;;513824;28;1604;-85
2022/06/11 00:49:49;;;;;;;4.97;2.30;;;;;;;;;;515169;28;1378;-85
2022/06/11 00:50:40;;;;;;;5.47;2.30;;;;;;;;;;514752;28;1527;-85
2022/06/11 00:51:17;;;;;;;5.53;2.58;;;;;;;;;;513383;28;1488;-85
2022/06/11 00:51:33;;;;;;;4.72;2.50;;;;;;;;;;518169;28;1635;-85
2022/06/11 00:51:55;;;;;;;5.30;2.40;;;;;;;;;;518913;28;1778;-85
2022/06/11 00:52:17;;;;;;;5.88;2.38;;;;;;;;;;520632;28;1692;-85
2022/06/11 00:52:41;;;;;;;6.00;2.50;;;;;;;;;;518564;28;1551;-85
2022/06/11 00:52:59;;;;;;;6.90;2.40;;;;;;;;;;518303;28;1556;-85
2022/06/11 00:53:40;;;;;;;6.03;2.30;;;;;;;;;;517748;28;1732;-85
2022/06/11 00:54:01;;;;;;;5.68;2.50;;;;;;;;;;517529;28;1407;-85
2022/06/11 00:54:22;;;;;;;6.00;2.60;;;;;;;;;;518268;28;1530;-85
2022/06/11 00:54:40;;;;;;;4.70;2.40;;;;;;;;;;517819;28;1452;-85
2022/06/11 00:55:17;;;;;;;4.63;2.50;;;;;;;;;;515746;28;1614;-85
2022/06/11 00:55:38;;;;;;;4.95;2.42;;;;;;;;;;515766;28;1973;-85
2022/06/11 00:55:54;;;;;;;5.78;2.53;;;;;;;;;;514215;28;1563;-85
2022/06/11 00:56:26;;;;;;;5.63;2.57;;;;;;;;;;513427;28;1582;-85
2022/06/11 00:56:47;;;;;;;5.75;2.47;;;;;;;;;;512643;28;1559;-85
2022/06/11 00:57:03;;;;;;;5.80;2.58;;;;;;;;;;512778;28;1436;-84
2022/06/11 00:57:19;;;;;;;5.38;2.40;;;;;;;;;;510740;28;1478;-85
2022/06/11 00:57:41;;;;;;;5.72;2.40;;;;;;;;;;512569;28;1441;-85
2022/06/11 00:58:05;;;;;;;5.85;2.30;;;;;;;;;;514828;28;1528;-85
2022/06/11 00:58:27;;;;;;;6.53;2.30;;;;;;;;;;514556;28;1568;-85
2022/06/11 00:58:46;;;;;;;5.82;2.60;;;;;;;;;;513542;28;1602;-85
2022/06/11 00:59:06;;;;;;;6.00;2.58;;;;;;;;;;513895;28;1548;-86
2022/06/11 00:59:29;;;;;;;5.00;2.40;;;;;;;;;;514086;28;1491;-85
2022/06/11 00:59:53;;;;;;;6.25;2.55;;;;;;;;;;514402;28;1500;-85
2022/06/11 01:00:20;;;;;;;7.80;2.60;;;;;;;;;;514131;28;1519;-85
2022/06/11 01:00:44;;;;;;;6.68;2.35;;;;;;;;;;516332;28;1452;-85
2022/06/11 01:01:00;;;;;;;5.20;2.40;;;;;;;;;;517690;28;1553;-85
2022/06/11 01:01:18;;;;;;;4.75;2.38;;;;;;;;;;519133;28;1644;-85
2022/06/11 01:01:33;;;;;;;4.43;2.42;;;;;;;;;;518256;28;1517;-85
2022/06/11 01:01:50;;;;;;;5.43;2.60;;;;;;;;;;520139;28;1522;-85
2022/06/11 01:02:06;;;;;;;6.53;2.65;;;;;;;;;;520407;28;1627;-85
2022/06/11 01:02:22;;;;;;;7.03;2.63;;;;;;;;;;518183;28;1618;-85
2022/06/11 01:02:37;;;;;;;5.85;2.55;;;;;;;;;;518113;28;1487;-85
2022/06/11 01:02:53;;;;;;;5.87;2.37;;;;;;;;;;518446;28;1440;-85
2022/06/11 01:03:11;;;;;;;6.43;2.40;;;;;;;;;;518119;28;1773;-85
2022/06/11 01:03:34;;;;;;;5.25;2.47;;;;;;;;;;515876;28;1662;-85
2022/06/11 01:03:53;;;;;;;5.90;2.45;;;;;;;;;;518571;28;1525;-85
2022/06/11 01:04:31;;;;;;;5.60;2.40;;;;;;;;;;516972;28;1614;-85
2022/06/11 01:04:49;;;;;;;8.88;2.50;;;;;;;;;;516859;28;1490;-85
2022/06/11 01:05:05;;;;;;;7.22;2.50;;;;;;;;;;517886;28;1488;-85
2022/06/11 01:05:32;;;;;;;4.72;2.47;;;;;;;;;;517845;28;1535;-85
2022/06/11 01:05:51;;;;;;;5.05;2.35;;;;;;;;;;515676;28;1444;-85
2022/06/11 01:06:28;;;;;;;4.47;2.30;;;;;;;;;;515884;28;1499;-85
2022/06/11 01:06:53;;;;;;;5.80;2.47;;;;;;;;;;515787;28;1646;-85
2022/06/11 01:07:46;;;;;;;6.03;2.40;;;;;;;;;;518264;28;1526;-85
2022/06/11 01:08:14;;;;;;;4.78;2.30;;;;;;;;;;519925;28;1549;-85
2022/06/11 01:09:01;;;;;;;6.68;2.47;;;;;;;;;;517936;28;1522;-85
2022/06/11 01:09:55;;;;;;;5.43;2.38;;;;;;;;;;518274;28;1423;-85
2022/06/11 01:10:25;;;;;;;5.45;2.25;;;;;;;;;;519954;28;1502;-85
2022/06/11 01:11:01;;;;;;;4.15;2.55;;;;;;;;;;519866;28;1638;-85
2022/06/11 01:11:44;;;;;;;6.97;2.28;;;;;;;;;;519769;28;1411;-85
2022/06/11 01:12:13;;;;;;;4.38;2.40;;;;;;;;;;519936;28;1447;-85
2022/06/11 01:12:31;;;;;;;4.70;2.30;;;;;;;;;;520524;28;1458;-85
2022/06/11 01:13:03;;;;;;;5.18;2.50;;;;;;;;;;518597;28;1398;-85
2022/06/11 01:13:43;;;;;;;4.75;2.38;;;;;;;;;;517859;28;1735;-85
2022/06/11 01:14:14;;;;;;;5.85;2.30;;;;;;;;;;518632;28;1555;-85
2022/06/11 01:14:52;;;;;;;6.68;2.58;;;;;;;;;;518608;28;1498;-85
2022/06/11 01:15:14;;;;;;;4.22;2.50;;;;;;;;;;518232;28;1489;-85
2022/06/11 01:15:59;;;;;;;5.10;2.50;;;;;;;;;;520022;28;1918;-85
2022/06/11 01:16:38;;;;;;;4.32;2.53;;;;;;;;;;517519;28;1606;-85
2022/06/11 01:17:10;;;;;;;3.85;2.20;;;;;;;;;;517735;28;1701;-85
2022/06/11 01:17:43;;;;;;;7.47;2.53;;;;;;;;;;518165;28;1569;-85
2022/06/11 01:18:02;;;;;;;6.00;2.30;;;;;;;;;;518312;28;1454;-85
2022/06/11 01:18:32;;;;;;;6.82;2.45;;;;;;;;;;519476;28;1686;-85
2022/06/11 01:19:05;;;;;;;4.28;2.45;;;;;;;;;;520136;28;1518;-85
2022/06/11 01:19:42;;;;;;;6.35;2.53;;;;;;;;;;520542;28;1644;-85
2022/06/11 01:20:23;;;;;;;4.40;2.15;;;;;;;;;;520369;28;1543;-85
2022/06/11 01:20:41;;;;;;;6.63;2.50;;;;;;;;;;520761;28;1651;-85
2022/06/11 01:21:28;;;;;;;6.43;2.50;;;;;;;;;;520295;28;1494;-85
2022/06/11 01:22:06;;;;;;;5.75;2.42;;;;;;;;;;521036;28;1454;-85
2022/06/11 01:22:54;;;;;;;5.22;2.42;;;;;;;;;;518422;28;1463;-85
2022/06/11 01:23:10;;;;;;;5.80;2.40;;;;;;;;;;518162;28;1982;-85
2022/06/11 01:23:34;;;;;;;6.75;2.50;;;;;;;;;;518215;28;1442;-85
2022/06/11 01:24:08;;;;;;;4.70;2.40;;;;;;;;;;517789;28;1661;-85
2022/06/11 01:24:42;;;;;;;3.47;2.20;;;;;;;;;;518651;28;1510;-85
2022/06/11 01:25:29;;;;;;;3.75;1.90;;;;;;;;;;518281;28;1635;-85
2022/06/11 01:26:08;;;;;;;4.03;2.20;;;;;;;;;;516992;28;1458;-85
2022/06/11 01:26:42;;;;;;;3.05;2.10;;;;;;;;;;515478;28;1523;-85
2022/06/11 01:27:37;;;;;;;5.65;2.40;;;;;;;;;;518090;28;1454;-85
2022/06/11 01:27:59;;;;;;;4.30;2.20;;;;;;;;;;516340;28;1693;-85
2022/06/11 01:28:27;;;;;;;7.10;2.30;;;;;;;;;;517157;28;1554;-85
2022/06/11 01:29:07;;;;;;;3.72;1.90;;;;;;;;;;518403;28;1990;-85
2022/06/11 01:29:46;;;;;;;4.55;2.15;;;;;;;;;;520494;28;1529;-85
2022/06/11 01:30:08;;;;;;;5.03;2.30;;;;;;;;;;522441;28;1492;-85
2022/06/11 01:30:31;;;;;;;5.45;2.10;;;;;;;;;;520581;28;1455;-85
2022/06/11 01:30:54;;;;;;;4.43;2.05;;;;;;;;;;518341;28;1442;-85
2022/06/11 01:31:20;;;;;;;4.88;2.05;;;;;;;;;;517287;28;1585;-85
2022/06/11 01:31:43;;;;;;;5.28;2.20;;;;;;;;;;517361;28;1846;-85
2022/06/11 01:32:15;;;;;;;5.78;2.20;;;;;;;;;;517009;28;1495;-85
2022/06/11 01:32:45;;;;;;;5.13;2.30;;;;;;;;;;518575;28;1769;-85
2022/06/11 01:33:15;;;;;;;4.43;1.98;;;;;;;;;;518652;28;1541;-85
2022/06/11 01:33:41;;;;;;;4.25;2.10;;;;;;;;;;516721;28;1473;-85
2022/06/11 01:34:04;;;;;;;5.85;2.30;;;;;;;;;;517929;28;1470;-85
2022/06/11 01:34:34;;;;;;;4.35;2.20;;;;;;;;;;516431;28;1535;-85
2022/06/11 01:35:26;;;;;;;6.03;2.50;;;;;;;;;;518459;28;1473;-85
2022/06/11 01:36:03;;;;;;;5.50;2.30;;;;;;;;;;517487;28;1948;-85
2022/06/11 01:36:23;;;;;;;5.35;2.47;;;;;;;;;;520231;28;1777;-85
2022/06/11 01:36:43;;;;;;;4.97;2.47;;;;;;;;;;518386;28;1397;-85
2022/06/11 01:37:11;;;;;;;4.55;2.20;;;;;;;;;;516299;28;1441;-85
2022/06/11 01:37:36;;;;;;;5.25;2.42;;;;;;;;;;514416;28;1522;-85
2022/06/11 01:38:03;;;;;;;5.88;2.30;;;;;;;;;;514654;28;1684;-85
2022/06/11 01:38:18;;;;;;;5.97;2.42;;;;;;;;;;514413;28;1634;-85
2022/06/11 01:38:40;;;;;;;4.33;2.30;;;;;;;;;;513499;28;1571;-85
2022/06/11 01:39:05;;;;;;;5.90;2.30;;;;;;;;;;516534;28;1484;-85
2022/06/11 01:39:24;;;;;;;5.53;2.30;;;;;;;;;;516356;28;1444;-85
2022/06/11 01:39:51;;;;;;;6.05;2.40;;;;;;;;;;517119;28;1542;-85
2022/06/11 01:40:20;;;;;;;4.72;2.40;;;;;;;;;;517536;28;1610;-85
2022/06/11 01:40:52;;;;;;;6.00;2.40;;;;;;;;;;517650;28;1533;-85
2022/06/11 01:41:10;;;;;;;4.50;2.33;;;;;;;;;;517830;28;1518;-85
2022/06/11 01:41:47;;;;;;;4.35;2.28;;;;;;;;;;519547;28;1360;-85
2022/06/11 01:42:12;;;;;;;6.22;2.50;;;;;;;;;;522750;28;1517;-85
2022/06/11 01:42:40;;;;;;;5.70;2.38;;;;;;;;;;518995;28;1482;-85
2022/06/11 01:43:10;;;;;;;4.65;2.40;;;;;;;;;;518423;28;1501;-85
2022/06/11 01:43:33;;;;;;;4.78;2.30;;;;;;;;;;518653;28;1865;-85
2022/06/11 01:43:53;;;;;;;6.35;2.50;;;;;;;;;;516243;28;1479;-86
2022/06/11 01:44:18;;;;;;;5.32;2.40;;;;;;;;;;516792;28;1508;-85
2022/06/11 01:44:37;;;;;;;5.07;2.30;;;;;;;;;;516591;28;1635;-85
2022/06/11 01:45:12;;;;;;;5.53;2.30;;;;;;;;;;517813;28;1487;-85
2022/06/11 01:45:36;;;;;;;5.70;2.30;;;;;;;;;;515683;28;1508;-85
2022/06/11 01:45:51;;;;;;;4.53;2.42;;;;;;;;;;516100;28;1551;-85
2022/06/11 01:46:33;;;;;;;4.57;2.30;;;;;;;;;;516534;28;1888;-85
2022/06/11 01:46:51;;;;;;;5.63;2.42;;;;;;;;;;518234;28;1609;-85
2022/06/11 01:47:07;;;;;;;4.88;2.40;;;;;;;;;;518726;28;1684;-85
2022/06/11 01:47:23;;;;;;;3.72;2.33;;;;;;;;;;518659;28;1478;-85
2022/06/11 01:47:39;;;;;;;3.97;2.40;;;;;;;;;;518807;28;1710;-85
2022/06/11 01:47:56;;;;;;;3.53;2.35;;;;;;;;;;518557;28;1404;-85
2022/06/11 01:48:17;;;;;;;5.22;2.45;;;;;;;;;;518855;28;1385;-85
2022/06/11 01:48:33;;;;;;;4.22;2.47;;;;;;;;;;518320;28;1549;-85
2022/06/11 01:48:52;;;;;;;5.65;2.60;;;;;;;;;;516621;28;1484;-85
2022/06/11 01:49:19;;;;;;;7.60;2.72;;;;;;;;;;514779;28;1498;-85
2022/06/11 01:49:45;;;;;;;6.25;2.60;;;;;;;;;;511900;28;1515;-85
2022/06/11 01:50:01;;;;;;;5.32;2.50;;;;;;;;;;510268;28;1729;-85
2022/06/11 01:50:19;;;;;;;6.15;2.60;;;;;;;;;;510712;29;1402;-85
2022/06/11 01:50:39;;;;;;;4.97;2.50;;;;;;;;;;510701;28;1477;-85
2022/06/11 01:51:01;;;;;;;6.10;2.53;;;;;;;;;;512712;28;1662;-85
2022/06/11 01:51:23;;;;;;;5.07;2.60;;;;;;;;;;512860;28;1438;-86
2022/06/11 01:51:45;;;;;;;6.53;2.60;;;;;;;;;;514690;28;1760;-86
2022/06/11 01:52:29;;;;;;;6.03;2.60;;;;;;;;;;514480;28;1507;-86
2022/06/11 01:53:05;;;;;;;5.35;2.60;;;;;;;;;;515631;28;1492;-85
2022/06/11 01:53:50;;;;;;;6.15;2.70;;;;;;;;;;518672;28;1585;-85
2022/06/11 01:54:48;;;;;;;6.00;2.60;;;;;;;;;;518463;28;1511;-85
2022/06/11 01:55:18;;;;;;;6.63;2.50;;;;;;;;;;506110;29;1993;-85
2022/06/11 01:55:55;;;;;;;7.50;2.60;;;;;;;;;;505619;29;1980;-86
2022/06/11 01:56:10;;;;;;;5.80;2.50;;;;;;;;;;516131;28;1581;-86
2022/06/11 01:56:45;;;;;;;5.63;2.45;;;;;;;;;;516682;28;1416;-86
2022/06/11 01:57:31;;;;;;;6.20;2.50;;;;;;;;;;518403;28;1404;-85
2022/06/11 01:58:04;;;;;;;6.90;2.70;;;;;;;;;;518580;28;1395;-85
2022/06/11 01:59:11;;;;;;;5.53;2.35;;;;;;;;;;518552;28;1498;-85
2022/06/11 01:59:54;;;;;;;4.10;2.28;;;;;;;;;;509284;29;1404;-85
2022/06/11 02:00:29;;;;;;;6.03;2.58;;;;;;;;;;509073;29;1643;-85
2022/06/11 02:01:08;;;;;;;6.32;2.40;;;;;;;;;;514885;28;1526;-86
2022/06/11 02:01:44;;;;;;;6.05;2.55;;;;;;;;;;519742;28;1505;-85
2022/06/11 02:02:13;;;;;;;5.35;2.60;;;;;;;;;;520949;28;1454;-86
2022/06/11 02:02:43;;;;;;;6.22;2.53;;;;;;;;;;518492;28;1400;-85
2022/06/11 02:03:11;;;;;;;5.15;2.35;;;;;;;;;;516237;28;1730;-85
2022/06/11 02:03:40;;;;;;;5.35;2.40;;;;;;;;;;514484;28;1452;-85
2022/06/11 02:04:18;;;;;;;5.15;2.40;;;;;;;;;;514699;28;1892;-86
2022/06/11 02:04:49;;;;;;;4.40;2.22;;;;;;;;;;514586;28;1430;-86
2022/06/11 02:05:16;;;;;;;6.07;2.53;;;;;;;;;;516497;28;1526;-85
2022/06/11 02:06:04;;;;;;;6.82;2.58;;;;;;;;;;518145;28;1626;-85
2022/06/11 02:06:33;;;;;;;5.70;2.80;;;;;;;;;;516470;28;1514;-85
2022/06/11 02:06:54;;;;;;;6.97;2.78;;;;;;;;;;516582;28;1691;-86
2022/06/11 02:07:28;;;;;;;8.93;3.10;;;;;;;;;;514186;28;1523;-86
2022/06/11 02:08:08;;;;;;;6.35;3.20;;;;;;;;;;514488;28;1546;-84
2022/06/11 02:08:46;;;;;;;7.47;3.10;;;;;;;;;;516255;28;1564;-85
2022/06/11 02:09:10;;;;;;;7.35;3.15;;;;;;;;;;516673;28;1460;-86
2022/06/11 02:09:39;;;;;;;7.80;2.97;;;;;;;;;;514116;28;1480;-85
2022/06/11 02:10:00;;;;;;;9.50;3.17;;;;;;;;;;514570;28;1595;-86
2022/06/11 02:10:27;;;;;;;10.18;3.33;;;;;;;;;;515023;28;1478;-86
2022/06/11 02:10:48;;;;;;;8.18;3.10;;;;;;;;;;516237;28;1706;-85
2022/06/11 02:11:18;;;;;;;5.93;2.95;;;;;;;;;;513964;28;1499;-86
2022/06/11 02:11:41;;;;;;;4.30;2.63;;;;;;;;;;514129;28;1463;-85
2022/06/11 02:12:26;;;;;;;5.43;2.88;;;;;;;;;;514444;28;1653;-85
2022/06/11 02:12:49;;;;;;;8.25;2.92;;;;;;;;;;512799;28;1452;-85
2022/06/11 02:13:10;;;;;;;6.10;2.90;;;;;;;;;;512366;28;1680;-85
2022/06/11 02:13:35;;;;;;;5.05;2.80;;;;;;;;;;513342;28;1793;-86
2022/06/11 02:14:02;;;;;;;5.30;2.60;;;;;;;;;;514739;28;1542;-85
2022/06/11 02:14:27;;;;;;;5.43;2.80;;;;;;;;;;512316;28;1627;-86
2022/06/11 02:15:06;;;;;;;7.65;2.75;;;;;;;;;;510155;29;1691;-85
2022/06/11 02:15:32;;;;;;;6.75;2.60;;;;;;;;;;513411;28;1573;-86
2022/06/11 02:15:57;;;;;;;5.25;2.30;;;;;;;;;;514342;28;1469;-85
2022/06/11 02:16:27;;;;;;;5.40;2.53;;;;;;;;;;512581;28;1479;-85
2022/06/11 02:16:52;;;;;;;6.10;2.40;;;;;;;;;;514773;28;1471;-85
2022/06/11 02:17:31;;;;;;;5.65;2.58;;;;;;;;;;512742;28;1429;-85
2022/06/11 02:17:53;;;;;;;6.53;2.83;;;;;;;;;;512324;28;1650;-85
2022/06/11 02:18:14;;;;;;;6.22;2.60;;;;;;;;;;514301;28;1475;-85
2022/06/11 02:18:30;;;;;;;5.22;2.85;;;;;;;;;;512631;28;1497;-85
2022/06/11 02:18:48;;;;;;;5.68;3.03;;;;;;;;;;513453;28;1620;-86
2022/06/11 02:19:15;;;;;;;7.20;3.05;;;;;;;;;;514787;28;1752;-86
2022/06/11 02:19:40;;;;;;;5.70;2.70;;;;;;;;;;514907;28;1401;-85
2022/06/11 02:20:22;;;;;;;5.90;2.50;;;;;;;;;;516439;28;1492;-85
2022/06/11 02:20:43;;;;;;;5.15;2.70;;;;;;;;;;519656;28;1473;-85
2022/06/11 02:21:07;;;;;;;4.47;2.63;;;;;;;;;;518403;28;1628;-85
2022/06/11 02:21:28;;;;;;;5.82;2.50;;;;;;;;;;518142;28;1500;-86
2022/06/11 02:21:49;;;;;;;5.38;2.45;;;;;;;;;;516184;28;1601;-86
2022/06/11 02:22:20;;;;;;;6.40;2.67;;;;;;;;;;514366;28;1480;-84
2022/06/11 02:23:02;;;;;;;6.40;2.72;;;;;;;;;;515396;28;1452;-86
2022/06/11 02:23:22;;;;;;;6.22;2.70;;;;;;;;;;514173;28;1381;-86